Terminal Aerodrome Forecast
Issued by NWS

Home | Current Version | Previous Version | Text Only | Print | Product List | Glossary On
Versions: 1 2 3 4 5 6 7 8 9 10 11 12 13 14 15 16 17 18 19 20 21 22 23 24 25 26 27 28 29 30 31 32 33 34 35
954
FTUS41 KBOX 110539
TAFBED
TAF
KBED 110539Z 1106/1206 27005KT P6SM SCT070
     FM110800 27005KT P6SM BKN070
     FM111100 27004KT P6SM VCSH BKN070
     FM111500 28008KT P6SM VCSH BKN035
     FM111800 28012G21KT P6SM VCSH BKN035
     FM112000 29014G25KT P6SM VCSH BKN035
     FM112300 28013G28KT P6SM BKN035
     FM120400 29011G26KT P6SM FEW250=

USA.gov is the U.S. government's official web portal to all federal, state and local government web resources and services.